LEVC/VLC METAR and TAF weather

Enter ICAO airport designator
Station Type Date Time Source
LEVC METAR 2021/09/16 11:00 UTC NOAA

LEVC 161100Z 27003KT 9999 FEW030 29/15 Q1016 NOSIG


Station Type Date Time Source
LEVC Decoded METAR 2021/09/16 11:00 UTC NOAA

Valencia / Aeropuerto, Spain (LEVC) 39-30N 000-28W 62M
Sep 16, 2021 - 07:00 AM EDT / 2021.09.16 1100 UTC
Wind: from the W (270 degrees) at 3 MPH (3 KT):0
Visibility: greater than 7 mile(s):0
Sky conditions: mostly clear
Temperature: 84 F (29 C)
Dew Point: 59 F (15 C)
Relative Humidity: 42%
Pressure (altimeter): 30.00 in. Hg (1016 hPa)
ob: LEVC 161100Z 27003KT 9999 FEW030 29/15 Q1016 NOSIG
cycle: 11

Station Type Date Time Source
LEVC TAF 2021/09/16 06:27 UTC NOAA

TAF LEVC 160500Z 1606/1706 VRB04KT 9999 FEW040 TX28/1612Z TN19/1606Z
BECMG 1609/1611 09010KT PROB30
TEMPO 1608/1614 3000 SHRA FEW040TCU PROB40
TEMPO 1612/1622 3000 TSRA FEW030CB
BECMG 1618/1620 30006KT

Example: see airport list